sensor_id;sensor_type;location;lat;lon;timestamp;pressure;altitude;pressure_sealevel;temperature;humidity
4326;BME280;58429;49.826;10.880;2023-10-19T00:00:53;97216;;;9.18;81.67
4326;BME280;58429;49.826;10.880;2023-10-19T00:01:53;97219;;;9.19;81.71
4326;BME280;58429;49.826;10.880;2023-10-19T00:02:53;97219;;;9.2;81.62
4326;BME280;58429;49.826;10.880;2023-10-19T00:03:53;97225;;;9.22;81.66
4326;BME280;58429;49.826;10.880;2023-10-19T00:04:53;97221;;;9.16;81.44
4326;BME280;58429;49.826;10.880;2023-10-19T00:05:55;97224;;;9.12;81.41
4326;BME280;58429;49.826;10.880;2023-10-19T00:06:53;97221;;;9.14;81.45
4326;BME280;58429;49.826;10.880;2023-10-19T00:07:53;97215;;;9.14;81.68
4326;BME280;58429;49.826;10.880;2023-10-19T00:08:53;97217;;;9.13;81.72
4326;BME280;58429;49.826;10.880;2023-10-19T00:09:53;97212;;;9.12;81.8
4326;BME280;58429;49.826;10.880;2023-10-19T00:10:54;97217;;;9.17;81.85
4326;BME280;58429;49.826;10.880;2023-10-19T00:11:53;97221;;;9.16;81.95
4326;BME280;58429;49.826;10.880;2023-10-19T00:12:53;97216;;;9.21;82.09
4326;BME280;58429;49.826;10.880;2023-10-19T00:13:53;97213;;;9.18;82.15
4326;BME280;58429;49.826;10.880;2023-10-19T00:14:53;97214;;;9.19;82.16
4326;BME280;58429;49.826;10.880;2023-10-19T00:15:53;97211;;;9.22;82.13
4326;BME280;58429;49.826;10.880;2023-10-19T00:16:53;97211;;;9.18;82.14
4326;BME280;58429;49.826;10.880;2023-10-19T00:17:53;97211;;;9.2;82.34
4326;BME280;58429;49.826;10.880;2023-10-19T00:18:53;97208;;;9.18;82.39
4326;BME280;58429;49.826;10.880;2023-10-19T00:19:53;97203;;;9.2;82.37
4326;BME280;58429;49.826;10.880;2023-10-19T00:20:53;97207;;;9.21;82.49
4326;BME280;58429;49.826;10.880;2023-10-19T00:21:53;97200;;;9.21;82.68
4326;BME280;58429;49.826;10.880;2023-10-19T00:22:53;97195;;;9.17;82.73
4326;BME280;58429;49.826;10.880;2023-10-19T00:23:54;97200;;;9.16;82.59
4326;BME280;58429;49.826;10.880;2023-10-19T00:24:53;97206;;;9.14;82.44
4326;BME280;58429;49.826;10.880;2023-10-19T00:25:53;97205;;;9.18;82.39
4326;BME280;58429;49.826;10.880;2023-10-19T00:26:53;97202;;;9.21;82.46
4326;BME280;58429;49.826;10.880;2023-10-19T00:27:53;97205;;;9.19;82.48
4326;BME280;58429;49.826;10.880;2023-10-19T00:28:53;97202;;;9.2;82.66
4326;BME280;58429;49.826;10.880;2023-10-19T00:29:53;97190;;;9.22;82.64
4326;BME280;58429;49.826;10.880;2023-10-19T00:30:53;97198;;;9.2;82.72
4326;BME280;58429;49.826;10.880;2023-10-19T00:31:53;97205;;;9.22;82.55
4326;BME280;58429;49.826;10.880;2023-10-19T00:32:53;97200;;;9.23;82.56
4326;BME280;58429;49.826;10.880;2023-10-19T00:33:53;97190;;;9.2;82.57
4326;BME280;58429;49.826;10.880;2023-10-19T00:34:53;97191;;;9.2;82.64
4326;BME280;58429;49.826;10.880;2023-10-19T00:35:53;97197;;;9.19;82.63
4326;BME280;58429;49.826;10.880;2023-10-19T00:36:53;97191;;;9.22;82.64
4326;BME280;58429;49.826;10.880;2023-10-19T00:37:54;97198;;;9.16;82.66
4326;BME280;58429;49.826;10.880;2023-10-19T00:38:53;97195;;;9.23;82.71
4326;BME280;58429;49.826;10.880;2023-10-19T00:39:53;97192;;;9.22;82.7
4326;BME280;58429;49.826;10.880;2023-10-19T00:40:53;97192;;;9.22;82.72
4326;BME280;58429;49.826;10.880;2023-10-19T00:41:53;97187;;;9.24;82.71
4326;BME280;58429;49.826;10.880;2023-10-19T00:42:53;97175;;;9.21;82.73
4326;BME280;58429;49.826;10.880;2023-10-19T00:43:53;97167;;;9.2;83.01
4326;BME280;58429;49.826;10.880;2023-10-19T00:44:53;97175;;;9.18;83.03
4326;BME280;58429;49.826;10.880;2023-10-19T00:45:53;97178;;;9.23;83.04
4326;BME280;58429;49.826;10.880;2023-10-19T00:46:53;97181;;;9.17;82.97
4326;BME280;58429;49.826;10.880;2023-10-19T00:47:53;97173;;;9.22;82.9
4326;BME280;58429;49.826;10.880;2023-10-19T00:48:53;97160;;;9.18;82.89
4326;BME280;58429;49.826;10.880;2023-10-19T00:49:53;97164;;;9.22;82.96
4326;BME280;58429;49.826;10.880;2023-10-19T00:50:53;97161;;;9.22;82.93
4326;BME280;58429;49.826;10.880;2023-10-19T00:51:54;97163;;;9.18;83.02
4326;BME280;58429;49.826;10.880;2023-10-19T00:52:53;97162;;;9.22;83.1
4326;BME280;58429;49.826;10.880;2023-10-19T00:53:54;97160;;;9.21;83.11
4326;BME280;58429;49.826;10.880;2023-10-19T00:54:53;97166;;;9.2;83.18
4326;BME280;58429;49.826;10.880;2023-10-19T00:55:53;97169;;;9.22;83.13
4326;BME280;58429;49.826;10.880;2023-10-19T00:56:53;97173;;;9.21;83.03
4326;BME280;58429;49.826;10.880;2023-10-19T00:57:53;97175;;;9.22;83.08
4326;BME280;58429;49.826;10.880;2023-10-19T00:58:53;97173;;;9.24;83.03
4326;BME280;58429;49.826;10.880;2023-10-19T00:59:53;97172;;;9.27;83.09
4326;BME280;58429;49.826;10.880;2023-10-19T01:00:53;97172;;;9.25;83.2
4326;BME280;58429;49.826;10.880;2023-10-19T01:01:53;97172;;;9.18;83.23
4326;BME280;58429;49.826;10.880;2023-10-19T01:02:53;97168;;;9.12;83.03
4326;BME280;58429;49.826;10.880;2023-10-19T01:03:53;97167;;;9.22;83.17
4326;BME280;58429;49.826;10.880;2023-10-19T01:04:53;97164;;;9.15;83.23
4326;BME280;58429;49.826;10.880;2023-10-19T01:05:53;97158;;;9.18;83.32
4326;BME280;58429;49.826;10.880;2023-10-19T01:06:53;97160;;;9.19;83.38
4326;BME280;58429;49.826;10.880;2023-10-19T01:07:53;97162;;;9.2;83.43
4326;BME280;58429;49.826;10.880;2023-10-19T01:08:53;97162;;;9.2;83.45
4326;BME280;58429;49.826;10.880;2023-10-19T01:09:53;97158;;;9.24;83.44
4326;BME280;58429;49.826;10.880;2023-10-19T01:10:53;97154;;;9.22;83.49
4326;BME280;58429;49.826;10.880;2023-10-19T01:11:53;97147;;;9.2;83.52
4326;BME280;58429;49.826;10.880;2023-10-19T01:12:53;97142;;;9.22;83.64
4326;BME280;58429;49.826;10.880;2023-10-19T01:13:53;97142;;;9.25;83.81
4326;BME280;58429;49.826;10.880;2023-10-19T01:15:09;97142;;;9.2;83.85
4326;BME280;58429;49.826;10.880;2023-10-19T01:15:53;97136;;;9.19;83.86
4326;BME280;58429;49.826;10.880;2023-10-19T01:16:53;97133;;;9.22;83.83
4326;BME280;58429;49.826;10.880;2023-10-19T01:17:53;97133;;;9.23;83.8
4326;BME280;58429;49.826;10.880;2023-10-19T01:18:53;97140;;;9.19;83.84
4326;BME280;58429;49.826;10.880;2023-10-19T01:19:53;97145;;;9.2;83.83
4326;BME280;58429;49.826;10.880;2023-10-19T01:20:53;97152;;;9.22;83.86
4326;BME280;58429;49.826;10.880;2023-10-19T01:21:53;97157;;;9.22;83.8
4326;BME280;58429;49.826;10.880;2023-10-19T01:22:53;97146;;;9.22;83.8
4326;BME280;58429;49.826;10.880;2023-10-19T01:23:53;97144;;;9.19;83.73
4326;BME280;58429;49.826;10.880;2023-10-19T01:24:53;97148;;;9.16;83.73
4326;BME280;58429;49.826;10.880;2023-10-19T01:25:54;97141;;;9.13;83.7
4326;BME280;58429;49.826;10.880;2023-10-19T01:26:53;97138;;;9.19;83.81
4326;BME280;58429;49.826;10.880;2023-10-19T01:27:53;97133;;;9.19;83.87
4326;BME280;58429;49.826;10.880;2023-10-19T01:28:53;97133;;;9.19;83.91
4326;BME280;58429;49.826;10.880;2023-10-19T01:29:53;97126;;;9.19;83.88
4326;BME280;58429;49.826;10.880;2023-10-19T01:30:53;97122;;;9.18;83.9
4326;BME280;58429;49.826;10.880;2023-10-19T01:31:53;97122;;;9.18;83.9
4326;BME280;58429;49.826;10.880;2023-10-19T01:32:53;97118;;;9.16;83.97
4326;BME280;58429;49.826;10.880;2023-10-19T01:33:53;97116;;;9.16;83.86
4326;BME280;58429;49.826;10.880;2023-10-19T01:34:53;97115;;;9.16;83.83
4326;BME280;58429;49.826;10.880;2023-10-19T01:35:53;97111;;;9.2;83.85
4326;BME280;58429;49.826;10.880;2023-10-19T01:36:53;97111;;;9.2;83.86
4326;BME280;58429;49.826;10.880;2023-10-19T01:37:53;97111;;;9.14;84.1
4326;BME280;58429;49.826;10.880;2023-10-19T01:38:54;97109;;;9.18;84.1
4326;BME280;58429;49.826;10.880;2023-10-19T01:39:53;97103;;;9.14;84.09
4326;BME280;58429;49.826;10.880;2023-10-19T01:40:53;97100;;;9.16;84.06
4326;BME280;58429;49.826;10.880;2023-10-19T01:41:53;97104;;;9.16;84
4326;BME280;58429;49.826;10.880;2023-10-19T01:42:53;97112;;;9.16;83.99
4326;BME280;58429;49.826;10.880;2023-10-19T01:43:53;97108;;;9.14;83.92
4326;BME280;58429;49.826;10.880;2023-10-19T01:44:53;97102;;;9.17;83.96
4326;BME280;58429;49.826;10.880;2023-10-19T01:45:53;97100;;;9.15;84.08
4326;BME280;58429;49.826;10.880;2023-10-19T01:46:53;97096;;;9.16;84.19
4326;BME280;58429;49.826;10.880;2023-10-19T01:47:53;97102;;;9.19;84.21
4326;BME280;58429;49.826;10.880;2023-10-19T01:48:53;97105;;;9.16;84.21
4326;BME280;58429;49.826;10.880;2023-10-19T01:49:53;97103;;;9.19;84.18
4326;BME280;58429;49.826;10.880;2023-10-19T01:50:53;97098;;;9.16;84.19
4326;BME280;58429;49.826;10.880;2023-10-19T01:51:53;97094;;;9.19;84.22
4326;BME280;58429;49.826;10.880;2023-10-19T01:52:53;97097;;;9.21;84.07
4326;BME280;58429;49.826;10.880;2023-10-19T01:53:53;97089;;;9.19;83.73
4326;BME280;58429;49.826;10.880;2023-10-19T01:54:53;97088;;;9.17;83.81
4326;BME280;58429;49.826;10.880;2023-10-19T01:55:53;97093;;;9.16;83.87
4326;BME280;58429;49.826;10.880;2023-10-19T01:56:54;97085;;;9.15;83.8
4326;BME280;58429;49.826;10.880;2023-10-19T01:57:53;97074;;;9.16;83.84
4326;BME280;58429;49.826;10.880;2023-10-19T01:58:53;97091;;;9.16;84.06
4326;BME280;58429;49.826;10.880;2023-10-19T01:59:53;97093;;;9.14;84.02
4326;BME280;58429;49.826;10.880;2023-10-19T02:00:53;97096;;;9.11;84.12
4326;BME280;58429;49.826;10.880;2023-10-19T02:01:53;97102;;;9.12;84.01
4326;BME280;58429;49.826;10.880;2023-10-19T02:02:53;97105;;;9.11;83.97
4326;BME280;58429;49.826;10.880;2023-10-19T02:03:53;97102;;;9.1;83.86
4326;BME280;58429;49.826;10.880;2023-10-19T02:04:53;97107;;;9.08;83.94
4326;BME280;58429;49.826;10.880;2023-10-19T02:05:57;97109;;;9.1;83.84
4326;BME280;58429;49.826;10.880;2023-10-19T02:06:53;97098;;;9.1;83.77
4326;BME280;58429;49.826;10.880;2023-10-19T02:07:53;97098;;;9.13;83.87
4326;BME280;58429;49.826;10.880;2023-10-19T02:08:54;97098;;;9.14;83.93
4326;BME280;58429;49.826;10.880;2023-10-19T02:09:53;97103;;;9.13;83.87
4326;BME280;58429;49.826;10.880;2023-10-19T02:10:53;97105;;;9.1;83.78
4326;BME280;58429;49.826;10.880;2023-10-19T02:11:53;97102;;;9.14;83.65
4326;BME280;58429;49.826;10.880;2023-10-19T02:12:53;97106;;;9.13;83.58
4326;BME280;58429;49.826;10.880;2023-10-19T02:13:53;97110;;;9.14;83.59
4326;BME280;58429;49.826;10.880;2023-10-19T02:14:53;97108;;;9.15;83.8
4326;BME280;58429;49.826;10.880;2023-10-19T02:15:53;97101;;;9.12;83.69
4326;BME280;58429;49.826;10.880;2023-10-19T02:16:54;97104;;;9.12;83.81
4326;BME280;58429;49.826;10.880;2023-10-19T02:17:53;97098;;;9.1;83.72
4326;BME280;58429;49.826;10.880;2023-10-19T02:18:53;97096;;;9.07;83.8
4326;BME280;58429;49.826;10.880;2023-10-19T02:19:53;97092;;;9.1;83.82
4326;BME280;58429;49.826;10.880;2023-10-19T02:20:53;97086;;;9.09;83.94
4326;BME280;58429;49.826;10.880;2023-10-19T02:21:54;97079;;;9.09;84.03
4326;BME280;58429;49.826;10.880;2023-10-19T02:22:53;97087;;;9.1;84.07
4326;BME280;58429;49.826;10.880;2023-10-19T02:23:53;97090;;;9.1;84.09
4326;BME280;58429;49.826;10.880;2023-10-19T02:24:53;97082;;;9.08;84
4326;BME280;58429;49.826;10.880;2023-10-19T02:25:53;97088;;;9.06;83.96
4326;BME280;58429;49.826;10.880;2023-10-19T02:26:54;97084;;;9.07;84.19
4326;BME280;58429;49.826;10.880;2023-10-19T02:27:53;97075;;;9.05;84.57
4326;BME280;58429;49.826;10.880;2023-10-19T02:28:53;97072;;;9.03;84.37
4326;BME280;58429;49.826;10.880;2023-10-19T02:29:53;97074;;;9.05;84.37
4326;BME280;58429;49.826;10.880;2023-10-19T02:30:53;97075;;;9.05;84.27
4326;BME280;58429;49.826;10.880;2023-10-19T02:31:53;97085;;;9.01;84.39
4326;BME280;58429;49.826;10.880;2023-10-19T02:32:53;97078;;;9;84.47
4326;BME280;58429;49.826;10.880;2023-10-19T02:33:54;97067;;;9.03;84.54
4326;BME280;58429;49.826;10.880;2023-10-19T02:34:53;97073;;;9.04;84.56
4326;BME280;58429;49.826;10.880;2023-10-19T02:35:53;97063;;;9.03;84.56
4326;BME280;58429;49.826;10.880;2023-10-19T02:36:53;97068;;;8.98;84.38
4326;BME280;58429;49.826;10.880;2023-10-19T02:37:53;97068;;;9.02;84.39
4326;BME280;58429;49.826;10.880;2023-10-19T02:38:53;97060;;;9.02;84.46
4326;BME280;58429;49.826;10.880;2023-10-19T02:39:53;97065;;;9.03;84.54
4326;BME280;58429;49.826;10.880;2023-10-19T02:40:53;97075;;;9.02;84.98
4326;BME280;58429;49.826;10.880;2023-10-19T02:41:53;97060;;;9;84.85
4326;BME280;58429;49.826;10.880;2023-10-19T02:42:53;97050;;;8.98;84.67
4326;BME280;58429;49.826;10.880;2023-10-19T02:43:53;97046;;;8.96;84.39
4326;BME280;58429;49.826;10.880;2023-10-19T02:44:53;97053;;;8.96;84.45
4326;BME280;58429;49.826;10.880;2023-10-19T02:45:53;97059;;;8.95;84.46
4326;BME280;58429;49.826;10.880;2023-10-19T02:46:54;97065;;;8.94;84.52
4326;BME280;58429;49.826;10.880;2023-10-19T02:47:53;97058;;;8.99;84.5
4326;BME280;58429;49.826;10.880;2023-10-19T02:48:53;97065;;;8.98;84.61
4326;BME280;58429;49.826;10.880;2023-10-19T02:49:53;97053;;;8.94;84.63
4326;BME280;58429;49.826;10.880;2023-10-19T02:50:53;97057;;;8.99;84.7
4326;BME280;58429;49.826;10.880;2023-10-19T02:51:53;97058;;;8.96;84.76
4326;BME280;58429;49.826;10.880;2023-10-19T02:52:53;97058;;;8.96;84.84
4326;BME280;58429;49.826;10.880;2023-10-19T02:53:53;97062;;;8.97;84.89
4326;BME280;58429;49.826;10.880;2023-10-19T02:54:53;97060;;;9;84.97
4326;BME280;58429;49.826;10.880;2023-10-19T02:55:53;97055;;;8.92;85.23
4326;BME280;58429;49.826;10.880;2023-10-19T02:56:54;97053;;;8.92;85
4326;BME280;58429;49.826;10.880;2023-10-19T02:57:53;97052;;;8.91;85.09
4326;BME280;58429;49.826;10.880;2023-10-19T02:58:53;97047;;;8.9;85.02
4326;BME280;58429;49.826;10.880;2023-10-19T02:59:53;97045;;;8.92;85.15
4326;BME280;58429;49.826;10.880;2023-10-19T03:00:53;97044;;;8.91;85.06
4326;BME280;58429;49.826;10.880;2023-10-19T03:01:54;97045;;;8.91;85.05
4326;BME280;58429;49.826;10.880;2023-10-19T03:02:53;97041;;;8.94;85.08
4326;BME280;58429;49.826;10.880;2023-10-19T03:03:54;97037;;;8.92;85.75
4326;BME280;58429;49.826;10.880;2023-10-19T03:04:53;97040;;;8.88;85.13
4326;BME280;58429;49.826;10.880;2023-10-19T03:05:53;97041;;;8.92;85.13
4326;BME280;58429;49.826;10.880;2023-10-19T03:06:53;97038;;;8.91;85.05
4326;BME280;58429;49.826;10.880;2023-10-19T03:07:53;97038;;;8.91;85.06
4326;BME280;58429;49.826;10.880;2023-10-19T03:08:53;97036;;;8.93;85.12
4326;BME280;58429;49.826;10.880;2023-10-19T03:09:53;97044;;;8.92;85.37
4326;BME280;58429;49.826;10.880;2023-10-19T03:10:53;97033;;;8.88;85.23
4326;BME280;58429;49.826;10.880;2023-10-19T03:11:54;97036;;;8.92;85.23
4326;BME280;58429;49.826;10.880;2023-10-19T03:12:53;97036;;;8.95;85.16
4326;BME280;58429;49.826;10.880;2023-10-19T03:13:53;97033;;;8.94;85.09
4326;BME280;58429;49.826;10.880;2023-10-19T03:14:54;97037;;;8.94;85.12
4326;BME280;58429;49.826;10.880;2023-10-19T03:15:53;97037;;;8.93;85.55
4326;BME280;58429;49.826;10.880;2023-10-19T03:16:54;97028;;;8.95;85.4
4326;BME280;58429;49.826;10.880;2023-10-19T03:17:53;97032;;;8.93;85.33
4326;BME280;58429;49.826;10.880;2023-10-19T03:18:53;97030;;;8.97;85.28
4326;BME280;58429;49.826;10.880;2023-10-19T03:19:53;97022;;;8.96;85.31
4326;BME280;58429;49.826;10.880;2023-10-19T03:20:53;97029;;;8.97;85.58
4326;BME280;58429;49.826;10.880;2023-10-19T03:21:53;97030;;;8.96;85.38
4326;BME280;58429;49.826;10.880;2023-10-19T03:22:53;97029;;;8.97;85.33
4326;BME280;58429;49.826;10.880;2023-10-19T03:23:53;97027;;;8.95;85.28
4326;BME280;58429;49.826;10.880;2023-10-19T03:24:53;97024;;;8.97;85.31
4326;BME280;58429;49.826;10.880;2023-10-19T03:25:54;97022;;;8.94;85.23
4326;BME280;58429;49.826;10.880;2023-10-19T03:26:53;97020;;;8.94;85.29
4326;BME280;58429;49.826;10.880;2023-10-19T03:27:53;97021;;;8.94;85.11
4326;BME280;58429;49.826;10.880;2023-10-19T03:28:53;97024;;;8.95;85.09
4326;BME280;58429;49.826;10.880;2023-10-19T03:29:53;97022;;;8.93;85.24
4326;BME280;58429;49.826;10.880;2023-10-19T03:30:53;97021;;;8.95;85.02
4326;BME280;58429;49.826;10.880;2023-10-19T03:31:53;97008;;;8.93;85.05
4326;BME280;58429;49.826;10.880;2023-10-19T03:32:53;97018;;;8.91;85.13
4326;BME280;58429;49.826;10.880;2023-10-19T03:33:53;97013;;;8.94;85.14
4326;BME280;58429;49.826;10.880;2023-10-19T03:34:53;97011;;;8.93;85.15
4326;BME280;58429;49.826;10.880;2023-10-19T03:35:53;97011;;;8.93;85.23
4326;BME280;58429;49.826;10.880;2023-10-19T03:36:53;97006;;;8.95;85.27
4326;BME280;58429;49.826;10.880;2023-10-19T03:37:53;97001;;;8.97;85.39
4326;BME280;58429;49.826;10.880;2023-10-19T03:38:53;96997;;;8.96;85.37
4326;BME280;58429;49.826;10.880;2023-10-19T03:39:53;97001;;;8.97;85.37
4326;BME280;58429;49.826;10.880;2023-10-19T03:40:53;97003;;;8.97;85.4
4326;BME280;58429;49.826;10.880;2023-10-19T03:41:53;96992;;;8.96;85.31
4326;BME280;58429;49.826;10.880;2023-10-19T03:42:53;96998;;;8.98;85.37
4326;BME280;58429;49.826;10.880;2023-10-19T03:43:54;96995;;;8.94;85.4
4326;BME280;58429;49.826;10.880;2023-10-19T03:44:53;96987;;;8.92;85.39
4326;BME280;58429;49.826;10.880;2023-10-19T03:45:53;96987;;;8.93;85.38
4326;BME280;58429;49.826;10.880;2023-10-19T03:46:54;96980;;;8.93;85.35
4326;BME280;58429;49.826;10.880;2023-10-19T03:47:53;96980;;;8.95;85.34
4326;BME280;58429;49.826;10.880;2023-10-19T03:48:54;96985;;;8.96;85.39
4326;BME280;58429;49.826;10.880;2023-10-19T03:49:53;96981;;;8.91;85.4
4326;BME280;58429;49.826;10.880;2023-10-19T03:50:53;96977;;;8.91;85.3
4326;BME280;58429;49.826;10.880;2023-10-19T03:51:53;96985;;;8.9;85.34
4326;BME280;58429;49.826;10.880;2023-10-19T03:52:53;96980;;;8.92;85.48
4326;BME280;58429;49.826;10.880;2023-10-19T03:53:53;96985;;;8.89;85.66
4326;BME280;58429;49.826;10.880;2023-10-19T03:54:54;96988;;;8.95;85.53
4326;BME280;58429;49.826;10.880;2023-10-19T03:55:54;96980;;;8.91;85.66
4326;BME280;58429;49.826;10.880;2023-10-19T03:56:54;96987;;;8.91;85.66
4326;BME280;58429;49.826;10.880;2023-10-19T03:57:53;96986;;;8.88;85.96
4326;BME280;58429;49.826;10.880;2023-10-19T03:58:54;96979;;;8.88;86.07
4326;BME280;58429;49.826;10.880;2023-10-19T03:59:54;96980;;;8.87;85.95
4326;BME280;58429;49.826;10.880;2023-10-19T04:00:53;96976;;;8.89;85.81
4326;BME280;58429;49.826;10.880;2023-10-19T04:01:53;96967;;;8.88;85.68
4326;BME280;58429;49.826;10.880;2023-10-19T04:02:54;96974;;;8.88;85.74
4326;BME280;58429;49.826;10.880;2023-10-19T04:03:53;96969;;;8.92;85.87
4326;BME280;58429;49.826;10.880;2023-10-19T04:04:53;96957;;;8.9;85.88
4326;BME280;58429;49.826;10.880;2023-10-19T04:05:53;96952;;;8.9;85.98
4326;BME280;58429;49.826;10.880;2023-10-19T04:06:54;96951;;;8.9;86.57
4326;BME280;58429;49.826;10.880;2023-10-19T04:07:53;96952;;;8.88;86.46
4326;BME280;58429;49.826;10.880;2023-10-19T04:08:53;96951;;;8.91;86.27
4326;BME280;58429;49.826;10.880;2023-10-19T04:09:54;96948;;;8.91;86.23
4326;BME280;58429;49.826;10.880;2023-10-19T04:10:54;96946;;;8.91;86.32
4326;BME280;58429;49.826;10.880;2023-10-19T04:11:54;96939;;;8.92;86.47
4326;BME280;58429;49.826;10.880;2023-10-19T04:12:54;96934;;;8.92;86.44
4326;BME280;58429;49.826;10.880;2023-10-19T04:13:53;96935;;;8.91;86.42
4326;BME280;58429;49.826;10.880;2023-10-19T04:14:54;96933;;;8.95;86.5
4326;BME280;58429;49.826;10.880;2023-10-19T04:15:54;96933;;;8.94;86.4
4326;BME280;58429;49.826;10.880;2023-10-19T04:16:53;96936;;;8.92;86.34
4326;BME280;58429;49.826;10.880;2023-10-19T04:17:53;96936;;;8.97;86.3
4326;BME280;58429;49.826;10.880;2023-10-19T04:18:54;96938;;;8.96;86.34
4326;BME280;58429;49.826;10.880;2023-10-19T04:19:54;96935;;;8.98;86.32
4326;BME280;58429;49.826;10.880;2023-10-19T04:20:54;96934;;;8.95;86.32
4326;BME280;58429;49.826;10.880;2023-10-19T04:21:53;96924;;;8.98;86.28
4326;BME280;58429;49.826;10.880;2023-10-19T04:22:54;96934;;;9;86.32
4326;BME280;58429;49.826;10.880;2023-10-19T04:23:54;96929;;;8.99;86.35
4326;BME280;58429;49.826;10.880;2023-10-19T04:24:54;96928;;;9.03;86.36
4326;BME280;58429;49.826;10.880;2023-10-19T04:25:54;96929;;;9.01;86.32
4326;BME280;58429;49.826;10.880;2023-10-19T04:26:54;96929;;;9.04;86.29
4326;BME280;58429;49.826;10.880;2023-10-19T04:27:54;96920;;;9.07;86.28
4326;BME280;58429;49.826;10.880;2023-10-19T04:28:54;96927;;;9.04;86.27
4326;BME280;58429;49.826;10.880;2023-10-19T04:29:53;96915;;;9.06;86.23
4326;BME280;58429;49.826;10.880;2023-10-19T04:30:54;96914;;;9.08;86.23
4326;BME280;58429;49.826;10.880;2023-10-19T04:31:53;96911;;;9.07;86.29
4326;BME280;58429;49.826;10.880;2023-10-19T04:32:54;96913;;;9.07;86.36
4326;BME280;58429;49.826;10.880;2023-10-19T04:33:54;96907;;;9.1;86.16
4326;BME280;58429;49.826;10.880;2023-10-19T04:34:54;96911;;;9.07;86.21
4326;BME280;58429;49.826;10.880;2023-10-19T04:35:54;96909;;;9.06;86.19
4326;BME280;58429;49.826;10.880;2023-10-19T04:36:54;96906;;;9.08;86.02
4326;BME280;58429;49.826;10.880;2023-10-19T04:37:54;96917;;;9.03;85.78
4326;BME280;58429;49.826;10.880;2023-10-19T04:38:54;96908;;;9.04;85.74
4326;BME280;58429;49.826;10.880;2023-10-19T04:39:54;96909;;;9.04;85.83
4326;BME280;58429;49.826;10.880;2023-10-19T04:40:54;96903;;;9.04;85.93
4326;BME280;58429;49.826;10.880;2023-10-19T04:41:54;96903;;;9.05;86.07
4326;BME280;58429;49.826;10.880;2023-10-19T04:42:54;96906;;;9.02;86.01
4326;BME280;58429;49.826;10.880;2023-10-19T04:43:54;96904;;;9.03;85.96
4326;BME280;58429;49.826;10.880;2023-10-19T04:44:54;96901;;;9.05;85.93
4326;BME280;58429;49.826;10.880;2023-10-19T04:45:54;96903;;;9.02;85.91
4326;BME280;58429;49.826;10.880;2023-10-19T04:46:54;96903;;;9.02;86.02
4326;BME280;58429;49.826;10.880;2023-10-19T04:47:54;96903;;;9.05;86.09
4326;BME280;58429;49.826;10.880;2023-10-19T04:48:54;96904;;;9.02;86.09
4326;BME280;58429;49.826;10.880;2023-10-19T04:49:54;96906;;;9.03;85.92
4326;BME280;58429;49.826;10.880;2023-10-19T04:50:54;96902;;;9.07;85.98
4326;BME280;58429;49.826;10.880;2023-10-19T04:51:54;96906;;;9.04;86
4326;BME280;58429;49.826;10.880;2023-10-19T04:52:54;96908;;;9.06;85.94
4326;BME280;58429;49.826;10.880;2023-10-19T04:53:54;96908;;;9.08;85.89
4326;BME280;58429;49.826;10.880;2023-10-19T04:54:54;96900;;;9.07;85.81
4326;BME280;58429;49.826;10.880;2023-10-19T04:55:54;96906;;;9.1;85.83
4326;BME280;58429;49.826;10.880;2023-10-19T04:56:54;96910;;;9.09;85.82
4326;BME280;58429;49.826;10.880;2023-10-19T04:57:54;96904;;;9.09;85.9
4326;BME280;58429;49.826;10.880;2023-10-19T04:58:54;96907;;;9.09;86.16
4326;BME280;58429;49.826;10.880;2023-10-19T04:59:54;96901;;;9.08;85.87
4326;BME280;58429;49.826;10.880;2023-10-19T05:00:54;96907;;;9.08;85.87
4326;BME280;58429;49.826;10.880;2023-10-19T05:01:54;96907;;;9.08;86.04
4326;BME280;58429;49.826;10.880;2023-10-19T05:02:54;96905;;;9.08;86.03
4326;BME280;58429;49.826;10.880;2023-10-19T05:03:54;96905;;;9.11;86.06
4326;BME280;58429;49.826;10.880;2023-10-19T05:04:54;96898;;;9.09;86.11
4326;BME280;58429;49.826;10.880;2023-10-19T05:05:54;96901;;;9.09;86.18
4326;BME280;58429;49.826;10.880;2023-10-19T05:06:54;96902;;;9.09;86.09
4326;BME280;58429;49.826;10.880;2023-10-19T05:07:54;96897;;;9.1;86.07
4326;BME280;58429;49.826;10.880;2023-10-19T05:08:54;96900;;;9.12;86.08
4326;BME280;58429;49.826;10.880;2023-10-19T05:09:54;96904;;;9.11;86.08
4326;BME280;58429;49.826;10.880;2023-10-19T05:10:54;96898;;;9.1;86.11
4326;BME280;58429;49.826;10.880;2023-10-19T05:11:54;96900;;;9.12;86.33
4326;BME280;58429;49.826;10.880;2023-10-19T05:12:54;96897;;;9.13;86.42
4326;BME280;58429;49.826;10.880;2023-10-19T05:13:54;96897;;;9.08;86.73
4326;BME280;58429;49.826;10.880;2023-10-19T05:14:54;96895;;;9.1;86.77
4326;BME280;58429;49.826;10.880;2023-10-19T05:15:54;96894;;;9.12;86.7
4326;BME280;58429;49.826;10.880;2023-10-19T05:16:54;96887;;;9.08;87.09
4326;BME280;58429;49.826;10.880;2023-10-19T05:17:54;96896;;;9.05;87.06
4326;BME280;58429;49.826;10.880;2023-10-19T05:18:54;96897;;;9.09;87.28
4326;BME280;58429;49.826;10.880;2023-10-19T05:19:54;96894;;;9.06;87.28
4326;BME280;58429;49.826;10.880;2023-10-19T05:20:54;96904;;;9.05;87.27
4326;BME280;58429;49.826;10.880;2023-10-19T05:21:54;96898;;;9.04;87.35
4326;BME280;58429;49.826;10.880;2023-10-19T05:22:54;96893;;;9.05;87.29
4326;BME280;58429;49.826;10.880;2023-10-19T05:23:54;96896;;;9.05;87.51
4326;BME280;58429;49.826;10.880;2023-10-19T05:24:54;96899;;;9;87.79
4326;BME280;58429;49.826;10.880;2023-10-19T05:25:59;96898;;;9.03;87.68
4326;BME280;58429;49.826;10.880;2023-10-19T05:26:54;96895;;;9.01;87.43
4326;BME280;58429;49.826;10.880;2023-10-19T05:27:54;96894;;;8.97;87.46
4326;BME280;58429;49.826;10.880;2023-10-19T05:28:54;96899;;;8.99;87.8
4326;BME280;58429;49.826;10.880;2023-10-19T05:29:54;96893;;;9.03;87.69
4326;BME280;58429;49.826;10.880;2023-10-19T05:30:54;96900;;;8.99;87.64
4326;BME280;58429;49.826;10.880;2023-10-19T05:31:54;96892;;;9;87.75
4326;BME280;58429;49.826;10.880;2023-10-19T05:32:54;96891;;;9.02;87.61
4326;BME280;58429;49.826;10.880;2023-10-19T05:33:54;96892;;;9.03;87.55
4326;BME280;58429;49.826;10.880;2023-10-19T05:34:54;96894;;;9.02;87.4
4326;BME280;58429;49.826;10.880;2023-10-19T05:35:54;96893;;;9.05;87.67
4326;BME280;58429;49.826;10.880;2023-10-19T05:36:54;96892;;;9.02;87.97